Terminal Aerodrome Forecast
Issued by NWS Northern Indiana

Home | Current Version | Previous Version | Text Only | Print | Product List | Glossary On
Versions: 1 2 3 4 5 6 7 8 9 10 11 12 13 14 15
000
FTUS43 KIWX 020300 AAA
TAFFWA
TAF AMD
KFWA 020315Z 0203/0224 34004KT P6SM VCSH BKN050
     FM020600 VRB02KT P6SM SCT050 BKN100
      TEMPO 0209/0213 4SM BR
     FM021600 36005KT P6SM SCT050=

USA.gov is the U.S. government's official web portal to all federal, state and local government web resources and services.